Bennettsville, SC (29512)

4:29 AM EDT on September 01, 2015 (GMT -0400)
Cottingham Creek (Hwy 9) | | Change Station
CLOSE
Current Station
Personal Weather Station
Location: Bennettsville, SC
Elevation: 143 ft
Nearby Weather Stations

Elev 143 ft 34.60 °N, 79.63 °W | Updated 56 seconds ago

Fog
Fog
66.5 °F
Feels Like 66.5 °F
N
0.0
Wind Variable Wind from NW
Gusts 0.0 mph

Today
High -- | Low -- °F
--% Chance of Precip.
Yesterday
High -- | Low -- °F
Precip. -- in
6:51 AM 7:45 PM
Waning Gibbous, 90% visible
Pressure 30.06 in
Visibility 0.2 miles
Clouds Overcast 100 ft
Dew Point 64 °F
Humidity 88%
Rainfall 0.00 in
Snow Depth Not available.
UV 0 out of 12
Pollen 4.10 out of 12
Air Quality Not available.
Flu Activity Not available.
METAR KBBP 010815Z AUTO 00000KT 1/4SM FG OVC001 20/20 A3006 RMK AO2
Pressure 30.06 in
Visibility 0.2 miles
Clouds Overcast 100 ft
Dew Point 64 °F
Humidity 88%
Rainfall 0.00 in
Snow Depth Not available.
UV 0 out of 12
Pollen 4.10 out of 12
Air Quality Not available.
Flu Activity Not available.
METAR KBBP 010815Z AUTO 00000KT 1/4SM FG OVC001 20/20 A3006 RMK AO2

10-Day Weather Forecast

×

Almanac

Astronomy

Sep. 01, 2015 Rise Set
Actual Time
Civil Twilight
Nautical Twilight
Astronomical Twilight
Moon
Length of Visible Light
Length of Day
Tomorrow will be .
, % of the Moon is Illuminated

Today's Extremes

State Highs State Lows

Community

WunderPhotos

Upload Photos

1,851,490 photos uploaded!

WunderBlogs® & News

Nearby

Air Quality

  Air Quality AQ Index Pollutant
Not available.

Snow Depth

Station Depth Elevation

Earthquake Activity

City Distance Mag. Time & Date
Minimum magnitude displayed is 2.5.

Coastal Water Temperatures

Place Temperature

Stations

Nearby Weather Stations

Station Location Temp. Windchill Dew Point Humidity Wind Precip. Elev Updated Type